Terminal Aerodrome Forecast
Issued by NWS Shreveport, LA

Home | Current Version | Previous Version | Text Only | Print | Product List | Glossary On
Versions: 1 2 3 4 5 6 7 8 9 10 11 12 13 14 15 16 17 18 19 20
148
FTUS44 KSHV 241126
TAFTYR
TAF
KTYR 241126Z 2412/2512 36004KT P6SM VCTS SCT050 BKN100CB
      TEMPO 2412/2415 5SM -TSRA OVC025CB
     FM241600 05007KT P6SM BKN250
     FM242100 07007KT P6SM VCTS BKN050CB
     FM250000 09004KT P6SM SCT080 BKN250=

USA.gov is the U.S. government's official web portal to all federal, state and local government web resources and services.